MLA2291 LOWW-EDMF
Flight info
| Callsign | MLA2291 |
|---|---|
| Flight time | 0h 54m |
| Altitude | 8000 |
| Route | MEDIX2B MEDIX DCT RENKA DCT |
| Aircraft | C208/L-V/N |
Departure
| Time | 2026-05-05 23:29 |
|---|---|
| Airport | Vienna International Airport (LOWW) |
Arrival
| Time | 2026-05-06 00:23 |
|---|---|
| Airport | Fürstenzell Airfield (EDMF) |
| Time | Latitude | Longitude | Altitude | Speed | Heading |
|---|---|---|---|---|---|
| 2026-05-05 23:05 | 48.11551 | 16.56723 | 608 ft | 0 kts | 206° |
| 2026-05-05 23:19 | 48.11570 | 16.56737 | 608 ft | 4 kts | 206° |
| 2026-05-05 23:20 | 48.11594 | 16.56754 | 608 ft | 4 kts | 205° |
| 2026-05-05 23:20 | 48.11619 | 16.56768 | 608 ft | 4 kts | 185° |
| 2026-05-05 23:20 | 48.11631 | 16.56758 | 617 ft | 1 kts | 116° |
| 2026-05-05 23:20 | 48.11632 | 16.56756 | 608 ft | 0 kts | 116° |
| 2026-05-05 23:22 | 48.11617 | 16.56803 | 615 ft | 8 kts | 115° |
| 2026-05-05 23:23 | 48.11589 | 16.56889 | 608 ft | 10 kts | 115° |
| 2026-05-05 23:23 | 48.11555 | 16.56996 | 614 ft | 12 kts | 117° |
| 2026-05-05 23:23 | 48.11513 | 16.57115 | 614 ft | 14 kts | 113° |
| 2026-05-05 23:23 | 48.11471 | 16.57249 | 615 ft | 15 kts | 117° |
| 2026-05-05 23:24 | 48.11435 | 16.57390 | 608 ft | 13 kts | 79° |
| 2026-05-05 23:24 | 48.11507 | 16.57474 | 614 ft | 15 kts | 26° |
| 2026-05-05 23:24 | 48.11606 | 16.57546 | 618 ft | 17 kts | 3° |
| 2026-05-05 23:24 | 48.11726 | 16.57505 | 611 ft | 18 kts | 344° |
| 2026-05-05 23:25 | 48.11837 | 16.57458 | 613 ft | 16 kts | 344° |
| 2026-05-05 23:25 | 48.11939 | 16.57415 | 614 ft | 13 kts | 344° |
| 2026-05-05 23:25 | 48.12003 | 16.57431 | 608 ft | 8 kts | 49° |
| 2026-05-05 23:25 | 48.12007 | 16.57524 | 608 ft | 11 kts | 104° |
| 2026-05-05 23:26 | 48.11995 | 16.57592 | 608 ft | 0 kts | 104° |
| 2026-05-05 23:27 | 48.11992 | 16.57614 | 608 ft | 8 kts | 99° |
| 2026-05-05 23:28 | 48.11968 | 16.57750 | 613 ft | 15 kts | 115° |
| 2026-05-05 23:28 | 48.11708 | 16.57931 | 612 ft | 83 kts | 164° |
| 2026-05-05 23:28 | 48.11009 | 16.58231 | 756 ft | 115 kts | 163° |
| 2026-05-05 23:28 | 48.10190 | 16.58585 | 951 ft | 133 kts | 164° |
| 2026-05-05 23:29 | 48.09256 | 16.58973 | 1149 ft | 143 kts | 165° |
| 2026-05-05 23:29 | 48.08279 | 16.59362 | 1355 ft | 147 kts | 165° |
| 2026-05-05 23:29 | 48.07285 | 16.59773 | 1563 ft | 149 kts | 165° |
| 2026-05-05 23:29 | 48.06270 | 16.59956 | 1753 ft | 148 kts | 191° |
| 2026-05-05 23:30 | 48.05394 | 16.59201 | 1942 ft | 150 kts | 222° |
| 2026-05-05 23:30 | 48.04910 | 16.58433 | 2098 ft | 152 kts | 223° |
| 2026-05-05 23:30 | 48.03933 | 16.56927 | 2360 ft | 152 kts | 223° |
| 2026-05-05 23:30 | 48.03199 | 16.55768 | 2561 ft | 155 kts | 225° |
| 2026-05-05 23:31 | 48.02667 | 16.54348 | 2762 ft | 162 kts | 250° |
| 2026-05-05 23:31 | 48.02558 | 16.52649 | 2963 ft | 167 kts | 270° |
| 2026-05-05 23:31 | 48.02582 | 16.50944 | 3144 ft | 163 kts | 267° |
| 2026-05-05 23:31 | 48.02575 | 16.49252 | 3376 ft | 163 kts | 267° |
| 2026-05-05 23:32 | 48.02582 | 16.47537 | 3568 ft | 166 kts | 266° |
| 2026-05-05 23:32 | 48.02595 | 16.45813 | 3768 ft | 165 kts | 268° |
| 2026-05-05 23:32 | 48.02591 | 16.44113 | 3965 ft | 161 kts | 266° |
| 2026-05-05 23:32 | 48.02596 | 16.42435 | 4159 ft | 161 kts | 266° |
| 2026-05-05 23:33 | 48.02604 | 16.40776 | 4350 ft | 159 kts | 267° |
| 2026-05-05 23:33 | 48.02601 | 16.39147 | 4549 ft | 157 kts | 265° |
| 2026-05-05 23:33 | 48.02610 | 16.37520 | 4755 ft | 155 kts | 269° |
| 2026-05-05 23:33 | 48.02877 | 16.35962 | 4941 ft | 160 kts | 290° |
| 2026-05-05 23:34 | 48.03308 | 16.34448 | 5138 ft | 157 kts | 285° |
| 2026-05-05 23:34 | 48.03725 | 16.32935 | 5346 ft | 158 kts | 289° |
| 2026-05-05 23:34 | 48.04157 | 16.31419 | 5547 ft | 159 kts | 287° |
| 2026-05-05 23:34 | 48.04579 | 16.29903 | 5744 ft | 157 kts | 287° |
| 2026-05-05 23:35 | 48.04995 | 16.28399 | 5944 ft | 157 kts | 287° |
| 2026-05-05 23:35 | 48.05409 | 16.26896 | 6139 ft | 155 kts | 288° |
| 2026-05-05 23:35 | 48.05813 | 16.25433 | 6333 ft | 151 kts | 287° |
| 2026-05-05 23:35 | 48.06216 | 16.23990 | 6529 ft | 149 kts | 288° |
| 2026-05-05 23:36 | 48.06478 | 16.23039 | 6673 ft | 151 kts | 287° |
| 2026-05-05 23:36 | 48.06889 | 16.21554 | 6863 ft | 155 kts | 289° |
| 2026-05-05 23:36 | 48.07300 | 16.20081 | 7080 ft | 154 kts | 288° |
| 2026-05-05 23:36 | 48.07720 | 16.18599 | 7278 ft | 154 kts | 289° |
| 2026-05-05 23:37 | 48.08127 | 16.17121 | 7465 ft | 152 kts | 288° |
| 2026-05-05 23:37 | 48.08518 | 16.15656 | 7662 ft | 151 kts | 290° |
| 2026-05-05 23:37 | 48.08919 | 16.14206 | 7858 ft | 149 kts | 289° |
| 2026-05-05 23:37 | 48.09313 | 16.12761 | 7996 ft | 154 kts | 289° |
| 2026-05-05 23:38 | 48.09729 | 16.11247 | 8000 ft | 164 kts | 289° |
| 2026-05-05 23:38 | 48.10177 | 16.09661 | 8018 ft | 167 kts | 290° |
| 2026-05-05 23:38 | 48.10624 | 16.08051 | 8022 ft | 168 kts | 289° |
| 2026-05-05 23:38 | 48.11084 | 16.06409 | 8007 ft | 171 kts | 290° |
| 2026-05-05 23:39 | 48.11528 | 16.04769 | 8008 ft | 170 kts | 289° |
| 2026-05-05 23:39 | 48.11974 | 16.03131 | 8008 ft | 170 kts | 290° |
| 2026-05-05 23:39 | 48.12425 | 16.01500 | 8007 ft | 169 kts | 290° |
| 2026-05-05 23:39 | 48.12874 | 15.99870 | 8008 ft | 169 kts | 290° |
| 2026-05-05 23:40 | 48.13323 | 15.98237 | 8007 ft | 170 kts | 290° |
| 2026-05-05 23:40 | 48.13766 | 15.96597 | 8005 ft | 170 kts | 290° |
| 2026-05-05 23:40 | 48.14229 | 15.94948 | 8006 ft | 172 kts | 290° |
| 2026-05-05 23:40 | 48.14678 | 15.93303 | 8006 ft | 170 kts | 290° |
| 2026-05-05 23:41 | 48.15128 | 15.91662 | 8004 ft | 169 kts | 290° |
| 2026-05-05 23:41 | 48.15593 | 15.90030 | 8011 ft | 172 kts | 290° |
| 2026-05-05 23:41 | 48.16070 | 15.88375 | 8014 ft | 174 kts | 291° |
| 2026-05-05 23:41 | 48.16542 | 15.86715 | 8007 ft | 173 kts | 290° |
| 2026-05-05 23:42 | 48.16997 | 15.85055 | 8018 ft | 173 kts | 290° |
| 2026-05-05 23:42 | 48.17474 | 15.83422 | 8009 ft | 173 kts | 291° |
| 2026-05-05 23:42 | 48.17946 | 15.81763 | 8012 ft | 173 kts | 290° |
| 2026-05-05 23:42 | 48.18410 | 15.80106 | 8008 ft | 171 kts | 290° |
| 2026-05-05 23:43 | 48.18876 | 15.78455 | 8014 ft | 173 kts | 291° |
| 2026-05-05 23:43 | 48.19345 | 15.76796 | 8014 ft | 173 kts | 290° |
| 2026-05-05 23:43 | 48.19817 | 15.75134 | 8014 ft | 173 kts | 290° |
| 2026-05-05 23:43 | 48.20286 | 15.73465 | 8017 ft | 173 kts | 291° |
| 2026-05-05 23:44 | 48.20756 | 15.71803 | 8010 ft | 172 kts | 290° |
| 2026-05-05 23:44 | 48.21215 | 15.70155 | 8006 ft | 171 kts | 290° |
| 2026-05-05 23:44 | 48.21679 | 15.68509 | 8001 ft | 172 kts | 290° |
| 2026-05-05 23:44 | 48.22145 | 15.66868 | 8009 ft | 171 kts | 290° |
| 2026-05-05 23:45 | 48.22604 | 15.65214 | 8007 ft | 172 kts | 290° |
| 2026-05-05 23:45 | 48.23070 | 15.63557 | 8006 ft | 173 kts | 290° |
| 2026-05-05 23:45 | 48.23538 | 15.61900 | 8009 ft | 173 kts | 291° |
| 2026-05-05 23:45 | 48.24008 | 15.60240 | 8007 ft | 173 kts | 290° |
| 2026-05-05 23:46 | 48.24470 | 15.58579 | 7999 ft | 172 kts | 290° |
| 2026-05-05 23:46 | 48.24923 | 15.56928 | 8007 ft | 171 kts | 290° |
| 2026-05-05 23:46 | 48.25386 | 15.55276 | 8008 ft | 172 kts | 290° |
| 2026-05-05 23:46 | 48.25848 | 15.53635 | 7999 ft | 172 kts | 290° |
| 2026-05-05 23:47 | 48.26313 | 15.51986 | 7999 ft | 171 kts | 290° |
| 2026-05-05 23:47 | 48.26772 | 15.50347 | 7996 ft | 170 kts | 290° |
| 2026-05-05 23:47 | 48.27233 | 15.48714 | 8006 ft | 170 kts | 290° |
| 2026-05-05 23:47 | 48.27665 | 15.47155 | 7995 ft | 173 kts | 290° |
| 2026-05-05 23:48 | 48.28087 | 15.45639 | 8006 ft | 175 kts | 291° |
| 2026-05-05 23:48 | 48.28555 | 15.43964 | 8002 ft | 173 kts | 290° |
| 2026-05-05 23:48 | 48.29012 | 15.42302 | 8006 ft | 172 kts | 290° |
| 2026-05-05 23:48 | 48.29457 | 15.40629 | 8010 ft | 172 kts | 285° |
| 2026-05-05 23:49 | 48.29732 | 15.38881 | 8005 ft | 172 kts | 281° |
| 2026-05-05 23:49 | 48.30013 | 15.37140 | 8018 ft | 171 kts | 281° |
| 2026-05-05 23:49 | 48.30300 | 15.35380 | 8004 ft | 175 kts | 282° |
| 2026-05-05 23:49 | 48.30594 | 15.33577 | 7959 ft | 179 kts | 281° |
| 2026-05-05 23:50 | 48.30880 | 15.31757 | 7942 ft | 177 kts | 281° |
| 2026-05-05 23:50 | 48.31167 | 15.29980 | 7958 ft | 179 kts | 281° |
| 2026-05-05 23:50 | 48.31458 | 15.28176 | 7951 ft | 175 kts | 282° |
| 2026-05-05 23:50 | 48.31750 | 15.26408 | 7962 ft | 175 kts | 282° |
| 2026-05-05 23:51 | 48.32033 | 15.24642 | 7960 ft | 172 kts | 281° |
| 2026-05-05 23:51 | 48.32304 | 15.22897 | 7965 ft | 172 kts | 281° |
| 2026-05-05 23:51 | 48.32592 | 15.21155 | 7965 ft | 172 kts | 281° |
| 2026-05-05 23:51 | 48.32875 | 15.19399 | 7963 ft | 173 kts | 281° |
| 2026-05-05 23:52 | 48.33148 | 15.17646 | 7974 ft | 172 kts | 281° |
| 2026-05-05 23:52 | 48.33422 | 15.15903 | 7979 ft | 172 kts | 281° |
| 2026-05-05 23:52 | 48.33702 | 15.14145 | 7973 ft | 173 kts | 281° |
| 2026-05-05 23:52 | 48.33985 | 15.12394 | 7983 ft | 173 kts | 281° |
| 2026-05-05 23:53 | 48.34259 | 15.10634 | 7976 ft | 172 kts | 281° |
| 2026-05-05 23:53 | 48.34533 | 15.08883 | 7977 ft | 171 kts | 281° |
| 2026-05-05 23:53 | 48.34812 | 15.07145 | 7972 ft | 172 kts | 282° |
| 2026-05-05 23:53 | 48.35097 | 15.05398 | 7974 ft | 172 kts | 281° |
| 2026-05-05 23:54 | 48.35368 | 15.03653 | 7973 ft | 171 kts | 281° |
| 2026-05-05 23:54 | 48.35639 | 15.01933 | 7978 ft | 171 kts | 281° |
| 2026-05-05 23:54 | 48.35909 | 15.00218 | 7974 ft | 170 kts | 281° |
| 2026-05-05 23:54 | 48.36190 | 14.98461 | 7972 ft | 170 kts | 281° |
| 2026-05-05 23:55 | 48.36468 | 14.96730 | 7972 ft | 170 kts | 281° |
| 2026-05-05 23:55 | 48.36733 | 14.95000 | 7971 ft | 170 kts | 281° |
| 2026-05-05 23:55 | 48.37006 | 14.93257 | 7975 ft | 172 kts | 281° |
| 2026-05-05 23:55 | 48.37289 | 14.91517 | 7983 ft | 172 kts | 281° |
| 2026-05-05 23:56 | 48.37566 | 14.89756 | 7979 ft | 173 kts | 280° |
| 2026-05-05 23:56 | 48.37833 | 14.87997 | 7982 ft | 172 kts | 281° |
| 2026-05-05 23:56 | 48.38108 | 14.86240 | 7980 ft | 173 kts | 281° |
| 2026-05-05 23:56 | 48.38382 | 14.84487 | 7982 ft | 172 kts | 281° |
| 2026-05-05 23:57 | 48.38664 | 14.82731 | 7982 ft | 172 kts | 281° |
| 2026-05-05 23:57 | 48.38934 | 14.80971 | 7983 ft | 174 kts | 281° |
| 2026-05-05 23:57 | 48.39211 | 14.79207 | 7984 ft | 174 kts | 281° |
| 2026-05-05 23:57 | 48.39486 | 14.77449 | 7984 ft | 172 kts | 280° |
| 2026-05-05 23:58 | 48.39755 | 14.75702 | 7983 ft | 171 kts | 281° |
| 2026-05-05 23:58 | 48.40026 | 14.73967 | 7982 ft | 170 kts | 281° |
| 2026-05-05 23:58 | 48.40287 | 14.72245 | 7984 ft | 171 kts | 281° |
| 2026-05-05 23:58 | 48.40566 | 14.70494 | 7987 ft | 173 kts | 281° |
| 2026-05-05 23:59 | 48.40843 | 14.68728 | 7988 ft | 173 kts | 280° |
| 2026-05-05 23:59 | 48.41108 | 14.66971 | 7988 ft | 172 kts | 281° |
| 2026-05-05 23:59 | 48.41382 | 14.65229 | 7983 ft | 169 kts | 281° |
| 2026-05-05 23:59 | 48.41650 | 14.63508 | 7986 ft | 169 kts | 280° |
| 2026-05-06 00:00 | 48.41910 | 14.61776 | 7991 ft | 171 kts | 281° |
| 2026-05-06 00:00 | 48.42185 | 14.60025 | 7989 ft | 171 kts | 280° |
| 2026-05-06 00:00 | 48.42451 | 14.58292 | 7988 ft | 168 kts | 281° |
| 2026-05-06 00:00 | 48.42717 | 14.56565 | 7990 ft | 169 kts | 280° |
| 2026-05-06 00:01 | 48.42977 | 14.54835 | 7988 ft | 170 kts | 279° |
| 2026-05-06 00:01 | 48.43240 | 14.53088 | 7990 ft | 171 kts | 280° |
| 2026-05-06 00:01 | 48.43512 | 14.51348 | 7997 ft | 170 kts | 281° |
| 2026-05-06 00:01 | 48.43784 | 14.49615 | 7996 ft | 170 kts | 281° |
| 2026-05-06 00:02 | 48.44052 | 14.47872 | 7994 ft | 171 kts | 281° |
| 2026-05-06 00:02 | 48.44312 | 14.46135 | 7998 ft | 170 kts | 280° |
| 2026-05-06 00:02 | 48.44577 | 14.44389 | 8000 ft | 171 kts | 281° |
| 2026-05-06 00:02 | 48.44842 | 14.42662 | 7995 ft | 170 kts | 281° |
| 2026-05-06 00:03 | 48.45108 | 14.40923 | 7994 ft | 171 kts | 280° |
| 2026-05-06 00:03 | 48.45373 | 14.39181 | 7996 ft | 171 kts | 281° |
| 2026-05-06 00:03 | 48.45639 | 14.37434 | 7996 ft | 171 kts | 281° |
| 2026-05-06 00:03 | 48.45906 | 14.35681 | 7998 ft | 170 kts | 280° |
| 2026-05-06 00:04 | 48.46168 | 14.33940 | 7996 ft | 171 kts | 280° |
| 2026-05-06 00:04 | 48.46431 | 14.32203 | 7999 ft | 169 kts | 280° |
| 2026-05-06 00:04 | 48.46694 | 14.30468 | 7998 ft | 170 kts | 280° |
| 2026-05-06 00:04 | 48.46958 | 14.28728 | 7995 ft | 170 kts | 280° |
| 2026-05-06 00:05 | 48.47483 | 14.25244 | 7999 ft | 170 kts | 280° |
| 2026-05-06 00:05 | 48.47744 | 14.23514 | 8000 ft | 169 kts | 280° |
| 2026-05-06 00:05 | 48.48006 | 14.21776 | 8000 ft | 169 kts | 280° |
| 2026-05-06 00:06 | 48.48261 | 14.20068 | 7995 ft | 168 kts | 280° |
| 2026-05-06 00:06 | 48.48519 | 14.18348 | 7993 ft | 168 kts | 280° |
| 2026-05-06 00:06 | 48.48776 | 14.16631 | 7997 ft | 168 kts | 280° |
| 2026-05-06 00:06 | 48.49035 | 14.14906 | 7994 ft | 168 kts | 280° |
| 2026-05-06 00:07 | 48.49293 | 14.13196 | 8002 ft | 168 kts | 280° |
| 2026-05-06 00:07 | 48.49551 | 14.11467 | 7994 ft | 169 kts | 280° |
| 2026-05-06 00:07 | 48.49806 | 14.09743 | 8000 ft | 169 kts | 279° |
| 2026-05-06 00:07 | 48.50066 | 14.08003 | 8006 ft | 171 kts | 280° |
| 2026-05-06 00:08 | 48.50332 | 14.06248 | 8003 ft | 172 kts | 280° |
| 2026-05-06 00:08 | 48.50593 | 14.04501 | 8009 ft | 171 kts | 280° |
| 2026-05-06 00:08 | 48.50853 | 14.02746 | 8003 ft | 171 kts | 281° |
| 2026-05-06 00:08 | 48.51107 | 14.01027 | 7997 ft | 169 kts | 280° |
| 2026-05-06 00:09 | 48.51365 | 13.99269 | 8007 ft | 171 kts | 280° |
| 2026-05-06 00:09 | 48.51624 | 13.97544 | 8003 ft | 171 kts | 281° |
| 2026-05-06 00:09 | 48.51884 | 13.95788 | 7997 ft | 169 kts | 280° |
| 2026-05-06 00:09 | 48.52141 | 13.94060 | 8008 ft | 169 kts | 281° |
| 2026-05-06 00:10 | 48.52397 | 13.92294 | 7893 ft | 176 kts | 280° |
| 2026-05-06 00:10 | 48.52678 | 13.90431 | 7644 ft | 182 kts | 281° |
| 2026-05-06 00:10 | 48.52961 | 13.88583 | 7397 ft | 185 kts | 281° |
| 2026-05-06 00:10 | 48.53233 | 13.86713 | 7167 ft | 176 kts | 281° |
| 2026-05-06 00:11 | 48.53483 | 13.84976 | 6924 ft | 166 kts | 280° |
| 2026-05-06 00:11 | 48.53721 | 13.83316 | 6702 ft | 160 kts | 280° |
| 2026-05-06 00:11 | 48.53944 | 13.81716 | 6502 ft | 152 kts | 280° |
| 2026-05-06 00:11 | 48.54179 | 13.80192 | 6335 ft | 147 kts | 281° |
| 2026-05-06 00:12 | 48.54409 | 13.78638 | 6117 ft | 154 kts | 280° |
| 2026-05-06 00:12 | 48.54620 | 13.77071 | 5900 ft | 153 kts | 280° |
| 2026-05-06 00:12 | 48.54855 | 13.75537 | 5711 ft | 146 kts | 282° |
| 2026-05-06 00:12 | 48.55076 | 13.74063 | 5523 ft | 142 kts | 281° |
| 2026-05-06 00:13 | 48.55288 | 13.72597 | 5332 ft | 142 kts | 281° |
| 2026-05-06 00:13 | 48.55483 | 13.71145 | 5151 ft | 142 kts | 278° |
| 2026-05-06 00:13 | 48.55703 | 13.69679 | 4985 ft | 146 kts | 282° |
| 2026-05-06 00:13 | 48.55949 | 13.68085 | 4753 ft | 162 kts | 282° |
| 2026-05-06 00:14 | 48.56185 | 13.66434 | 4533 ft | 160 kts | 281° |
| 2026-05-06 00:14 | 48.56421 | 13.64814 | 4357 ft | 158 kts | 282° |
| 2026-05-06 00:14 | 48.56650 | 13.63197 | 4112 ft | 156 kts | 281° |
| 2026-05-06 00:14 | 48.56885 | 13.61591 | 3903 ft | 161 kts | 282° |
| 2026-05-06 00:15 | 48.57128 | 13.59936 | 3687 ft | 158 kts | 282° |
| 2026-05-06 00:15 | 48.57358 | 13.58330 | 3486 ft | 155 kts | 281° |
| 2026-05-06 00:15 | 48.57583 | 13.56758 | 3280 ft | 154 kts | 281° |
| 2026-05-06 00:15 | 48.57818 | 13.55155 | 3088 ft | 159 kts | 281° |
| 2026-05-06 00:16 | 48.58049 | 13.53526 | 2871 ft | 159 kts | 281° |
| 2026-05-06 00:16 | 48.58285 | 13.51898 | 2650 ft | 158 kts | 281° |
| 2026-05-06 00:16 | 48.58263 | 13.50283 | 2508 ft | 152 kts | 253° |
| 2026-05-06 00:16 | 48.57820 | 13.48872 | 2490 ft | 146 kts | 237° |
| 2026-05-06 00:17 | 48.57288 | 13.47603 | 2497 ft | 141 kts | 238° |
| 2026-05-06 00:17 | 48.56784 | 13.46339 | 2492 ft | 138 kts | 239° |
| 2026-05-06 00:17 | 48.56294 | 13.45108 | 2459 ft | 138 kts | 238° |
| 2026-05-06 00:17 | 48.55783 | 13.43828 | 2350 ft | 148 kts | 239° |
| 2026-05-06 00:18 | 48.55239 | 13.42491 | 2300 ft | 148 kts | 238° |
| 2026-05-06 00:18 | 48.54696 | 13.41159 | 2312 ft | 150 kts | 238° |
| 2026-05-06 00:18 | 48.54149 | 13.39797 | 2313 ft | 153 kts | 239° |
| 2026-05-06 00:18 | 48.53597 | 13.38425 | 2315 ft | 154 kts | 238° |
| 2026-05-06 00:19 | 48.53040 | 13.37043 | 2318 ft | 154 kts | 239° |
| 2026-05-06 00:19 | 48.52476 | 13.35653 | 2318 ft | 155 kts | 238° |
| 2026-05-06 00:19 | 48.51919 | 13.34280 | 2317 ft | 154 kts | 236° |
| 2026-05-06 00:19 | 48.51071 | 13.33449 | 2297 ft | 144 kts | 187° |
| 2026-05-06 00:20 | 48.50172 | 13.33832 | 2303 ft | 141 kts | 147° |
| 2026-05-06 00:20 | 48.49715 | 13.35043 | 2302 ft | 139 kts | 92° |
| 2026-05-06 00:20 | 48.50105 | 13.36321 | 2300 ft | 138 kts | 36° |
| 2026-05-06 00:20 | 48.51005 | 13.36558 | 2308 ft | 134 kts | 341° |
| 2026-05-06 00:21 | 48.51869 | 13.36035 | 2320 ft | 134 kts | 336° |
| 2026-05-06 00:21 | 48.52732 | 13.35520 | 2304 ft | 129 kts | 336° |
| 2026-05-06 00:21 | 48.53500 | 13.35057 | 2312 ft | 114 kts | 336° |
| 2026-05-06 00:21 | 48.54220 | 13.34625 | 2307 ft | 110 kts | 336° |
| 2026-05-06 00:22 | 48.54898 | 13.34129 | 2300 ft | 107 kts | 314° |
| 2026-05-06 00:22 | 48.55076 | 13.33463 | 2287 ft | 105 kts | 266° |
| 2026-05-06 00:22 | 48.54643 | 13.32686 | 2295 ft | 104 kts | 194° |
| 2026-05-06 00:22 | 48.53947 | 13.33020 | 2135 ft | 113 kts | 147° |
| 2026-05-06 00:23 | 48.53267 | 13.33645 | 1771 ft | 112 kts | 154° |
| 2026-05-06 00:23 | 48.52579 | 13.34118 | 1498 ft | 103 kts | 160° |
| 2026-05-06 00:23 | 48.51805 | 13.34593 | 1356 ft | 42 kts | 158° |
| 2026-05-06 00:23 | 48.51759 | 13.34622 | 1355 ft | 2 kts | 154° |
| 2026-05-06 00:24 | 48.51757 | 13.34623 | 1355 ft | 0 kts | 155° |
| 2026-05-06 00:24 | 48.51753 | 13.34626 | 1355 ft | 4 kts | 156° |
| 2026-05-06 00:25 | 48.51702 | 13.34659 | 1355 ft | 10 kts | 154° |
| 2026-05-06 00:25 | 48.51674 | 13.34677 | 1354 ft | 0 kts | 158° |
| 2026-05-06 00:25 | 48.51636 | 13.34701 | 1355 ft | 10 kts | 157° |
| 2026-05-06 00:25 | 48.51597 | 13.34675 | 1352 ft | 5 kts | 297° |
| 2026-05-06 00:26 | 48.51627 | 13.34661 | 1353 ft | 0 kts | 47° |
| 2026-05-06 00:26 | 48.51629 | 13.34664 | 1353 ft | 0 kts | 61° |
| 2026-05-06 00:26 | 48.51629 | 13.34665 | 1353 ft | 0 kts | 72° |